sensor_id;sensor_type;location;lat;lon;timestamp;P1;durP1;ratioP1;P2;durP2;ratioP2
32826;SDS011;51059;42.058;27.986;2023-02-10T00:01:25;32.60;;;11.50;;
32826;SDS011;51059;42.058;27.986;2023-02-10T00:03:51;29.20;;;11.50;;
32826;SDS011;51059;42.058;27.986;2023-02-10T00:06:18;31.13;;;11.33;;
32826;SDS011;51059;42.058;27.986;2023-02-10T00:08:48;27.03;;;10.37;;
32826;SDS011;51059;42.058;27.986;2023-02-10T00:11:17;27.80;;;11.30;;
32826;SDS011;51059;42.058;27.986;2023-02-10T00:13:43;22.53;;;10.17;;
32826;SDS011;51059;42.058;27.986;2023-02-10T00:16:11;24.53;;;10.73;;
32826;SDS011;51059;42.058;27.986;2023-02-10T00:18:37;35.50;;;11.23;;
32826;SDS011;51059;42.058;27.986;2023-02-10T00:21:07;26.97;;;11.20;;
32826;SDS011;51059;42.058;27.986;2023-02-10T00:23:37;30.67;;;11.67;;
32826;SDS011;51059;42.058;27.986;2023-02-10T00:26:04;32.97;;;11.40;;
32826;SDS011;51059;42.058;27.986;2023-02-10T00:28:31;22.23;;;10.23;;
32826;SDS011;51059;42.058;27.986;2023-02-10T00:30:58;21.37;;;10.13;;
32826;SDS011;51059;42.058;27.986;2023-02-10T00:33:23;30.80;;;11.77;;
32826;SDS011;51059;42.058;27.986;2023-02-10T00:35:49;24.13;;;9.80;;
32826;SDS011;51059;42.058;27.986;2023-02-10T00:38:15;29.63;;;11.27;;
32826;SDS011;51059;42.058;27.986;2023-02-10T00:40:40;28.67;;;10.80;;
32826;SDS011;51059;42.058;27.986;2023-02-10T00:43:06;30.80;;;11.30;;
32826;SDS011;51059;42.058;27.986;2023-02-10T00:45:31;24.80;;;11.23;;
32826;SDS011;51059;42.058;27.986;2023-02-10T00:47:57;32.03;;;11.30;;
32826;SDS011;51059;42.058;27.986;2023-02-10T00:50:22;24.57;;;11.23;;
32826;SDS011;51059;42.058;27.986;2023-02-10T00:52:48;29.10;;;10.53;;
32826;SDS011;51059;42.058;27.986;2023-02-10T00:55:14;26.80;;;10.93;;
32826;SDS011;51059;42.058;27.986;2023-02-10T00:57:39;26.17;;;10.97;;
32826;SDS011;51059;42.058;27.986;2023-02-10T01:00:05;25.47;;;10.57;;
32826;SDS011;51059;42.058;27.986;2023-02-10T01:02:31;20.23;;;9.57;;
32826;SDS011;51059;42.058;27.986;2023-02-10T01:04:56;30.83;;;11.40;;
32826;SDS011;51059;42.058;27.986;2023-02-10T01:07:22;29.33;;;11.47;;
32826;SDS011;51059;42.058;27.986;2023-02-10T01:09:47;33.07;;;12.03;;
32826;SDS011;51059;42.058;27.986;2023-02-10T01:12:13;30.53;;;10.20;;
32826;SDS011;51059;42.058;27.986;2023-02-10T01:14:39;25.53;;;11.40;;
32826;SDS011;51059;42.058;27.986;2023-02-10T01:17:04;39.33;;;11.70;;
32826;SDS011;51059;42.058;27.986;2023-02-10T01:19:30;31.03;;;11.40;;
32826;SDS011;51059;42.058;27.986;2023-02-10T01:21:55;39.23;;;12.33;;
32826;SDS011;51059;42.058;27.986;2023-02-10T01:24:21;34.43;;;12.33;;
32826;SDS011;51059;42.058;27.986;2023-02-10T01:26:46;38.93;;;13.93;;
32826;SDS011;51059;42.058;27.986;2023-02-10T01:29:14;32.37;;;12.70;;
32826;SDS011;51059;42.058;27.986;2023-02-10T01:31:39;37.10;;;12.13;;
32826;SDS011;51059;42.058;27.986;2023-02-10T01:34:05;32.63;;;12.97;;
32826;SDS011;51059;42.058;27.986;2023-02-10T01:36:30;32.43;;;12.23;;
32826;SDS011;51059;42.058;27.986;2023-02-10T01:38:56;27.47;;;12.20;;
32826;SDS011;51059;42.058;27.986;2023-02-10T01:41:22;27.40;;;11.93;;
32826;SDS011;51059;42.058;27.986;2023-02-10T01:43:55;24.10;;;11.17;;
32826;SDS011;51059;42.058;27.986;2023-02-10T01:46:39;23.33;;;10.77;;
32826;SDS011;51059;42.058;27.986;2023-02-10T01:49:07;26.40;;;11.60;;
32826;SDS011;51059;42.058;27.986;2023-02-10T01:51:40;36.37;;;12.17;;
32826;SDS011;51059;42.058;27.986;2023-02-10T01:54:08;22.00;;;10.53;;
32826;SDS011;51059;42.058;27.986;2023-02-10T01:56:38;19.77;;;10.53;;
32826;SDS011;51059;42.058;27.986;2023-02-10T01:59:04;21.30;;;10.17;;
32826;SDS011;51059;42.058;27.986;2023-02-10T02:01:30;20.43;;;10.10;;
32826;SDS011;51059;42.058;27.986;2023-02-10T02:03:55;18.30;;;10.50;;
32826;SDS011;51059;42.058;27.986;2023-02-10T02:06:21;21.07;;;10.80;;
32826;SDS011;51059;42.058;27.986;2023-02-10T02:08:47;19.83;;;10.37;;
32826;SDS011;51059;42.058;27.986;2023-02-10T02:22:26;21.23;;;10.33;;
32826;SDS011;51059;42.058;27.986;2023-02-10T02:33:10;20.30;;;9.60;;
32826;SDS011;51059;42.058;27.986;2023-02-10T02:35:45;22.83;;;10.47;;
32826;SDS011;51059;42.058;27.986;2023-02-10T02:38:15;17.57;;;10.10;;
32826;SDS011;51059;42.058;27.986;2023-02-10T02:40:41;20.60;;;10.43;;
32826;SDS011;51059;42.058;27.986;2023-02-10T02:43:06;20.93;;;10.17;;
32826;SDS011;51059;42.058;27.986;2023-02-10T02:48:26;18.53;;;9.70;;
32826;SDS011;51059;42.058;27.986;2023-02-10T02:51:20;20.23;;;9.97;;
32826;SDS011;51059;42.058;27.986;2023-02-10T02:59:36;21.50;;;10.27;;
32826;SDS011;51059;42.058;27.986;2023-02-10T03:02:20;17.97;;;9.90;;
32826;SDS011;51059;42.058;27.986;2023-02-10T03:04:45;20.73;;;9.80;;
32826;SDS011;51059;42.058;27.986;2023-02-10T03:07:11;18.77;;;9.67;;
32826;SDS011;51059;42.058;27.986;2023-02-10T03:09:37;19.70;;;9.80;;
32826;SDS011;51059;42.058;27.986;2023-02-10T03:12:03;15.93;;;9.10;;
32826;SDS011;51059;42.058;27.986;2023-02-10T03:14:29;18.90;;;9.40;;
32826;SDS011;51059;42.058;27.986;2023-02-10T03:16:55;19.10;;;9.57;;
32826;SDS011;51059;42.058;27.986;2023-02-10T03:19:20;19.57;;;10.33;;
32826;SDS011;51059;42.058;27.986;2023-02-10T03:21:46;22.33;;;10.00;;
32826;SDS011;51059;42.058;27.986;2023-02-10T03:24:12;17.07;;;9.30;;
32826;SDS011;51059;42.058;27.986;2023-02-10T03:26:38;22.53;;;10.83;;
32826;SDS011;51059;42.058;27.986;2023-02-10T03:29:04;22.07;;;10.67;;
32826;SDS011;51059;42.058;27.986;2023-02-10T03:31:30;22.97;;;10.00;;
32826;SDS011;51059;42.058;27.986;2023-02-10T03:33:56;15.23;;;8.60;;
32826;SDS011;51059;42.058;27.986;2023-02-10T03:36:22;18.43;;;9.73;;
32826;SDS011;51059;42.058;27.986;2023-02-10T03:38:47;17.93;;;8.67;;
32826;SDS011;51059;42.058;27.986;2023-02-10T03:41:13;17.47;;;9.27;;
32826;SDS011;51059;42.058;27.986;2023-02-10T03:43:39;15.80;;;9.30;;
32826;SDS011;51059;42.058;27.986;2023-02-10T03:46:06;15.67;;;8.33;;
32826;SDS011;51059;42.058;27.986;2023-02-10T03:48:32;22.73;;;9.23;;
32826;SDS011;51059;42.058;27.986;2023-02-10T03:51:01;18.97;;;8.13;;
32826;SDS011;51059;42.058;27.986;2023-02-10T03:53:29;19.90;;;9.27;;
32826;SDS011;51059;42.058;27.986;2023-02-10T03:55:56;17.07;;;8.60;;
32826;SDS011;51059;42.058;27.986;2023-02-10T03:58:22;21.17;;;9.70;;
32826;SDS011;51059;42.058;27.986;2023-02-10T04:00:48;18.87;;;9.00;;
32826;SDS011;51059;42.058;27.986;2023-02-10T04:03:13;17.87;;;9.87;;
32826;SDS011;51059;42.058;27.986;2023-02-10T04:05:39;19.40;;;9.50;;
32826;SDS011;51059;42.058;27.986;2023-02-10T04:08:05;17.40;;;8.80;;
32826;SDS011;51059;42.058;27.986;2023-02-10T04:10:31;15.07;;;8.20;;
32826;SDS011;51059;42.058;27.986;2023-02-10T04:12:57;18.93;;;8.33;;
32826;SDS011;51059;42.058;27.986;2023-02-10T04:15:23;17.27;;;8.90;;
32826;SDS011;51059;42.058;27.986;2023-02-10T04:17:48;17.03;;;8.80;;
32826;SDS011;51059;42.058;27.986;2023-02-10T04:20:14;14.00;;;7.67;;
32826;SDS011;51059;42.058;27.986;2023-02-10T04:22:40;17.67;;;9.60;;
32826;SDS011;51059;42.058;27.986;2023-02-10T04:25:06;17.17;;;9.13;;
32826;SDS011;51059;42.058;27.986;2023-02-10T04:27:32;15.80;;;9.53;;
32826;SDS011;51059;42.058;27.986;2023-02-10T04:29:57;17.10;;;9.27;;
32826;SDS011;51059;42.058;27.986;2023-02-10T04:32:23;14.07;;;8.70;;
32826;SDS011;51059;42.058;27.986;2023-02-10T04:34:48;15.23;;;8.67;;
32826;SDS011;51059;42.058;27.986;2023-02-10T04:37:14;16.27;;;8.70;;
32826;SDS011;51059;42.058;27.986;2023-02-10T04:39:40;16.43;;;8.80;;
32826;SDS011;51059;42.058;27.986;2023-02-10T04:42:06;12.60;;;7.73;;
32826;SDS011;51059;42.058;27.986;2023-02-10T04:44:31;15.23;;;9.03;;
32826;SDS011;51059;42.058;27.986;2023-02-10T04:46:57;16.90;;;9.27;;
32826;SDS011;51059;42.058;27.986;2023-02-10T04:49:23;14.97;;;8.70;;
32826;SDS011;51059;42.058;27.986;2023-02-10T04:51:49;25.70;;;9.90;;
32826;SDS011;51059;42.058;27.986;2023-02-10T04:54:15;16.17;;;9.47;;
32826;SDS011;51059;42.058;27.986;2023-02-10T04:56:40;18.63;;;8.97;;
32826;SDS011;51059;42.058;27.986;2023-02-10T04:59:06;16.50;;;9.13;;
32826;SDS011;51059;42.058;27.986;2023-02-10T05:01:32;19.93;;;9.50;;
32826;SDS011;51059;42.058;27.986;2023-02-10T05:03:58;23.67;;;10.13;;
32826;SDS011;51059;42.058;27.986;2023-02-10T05:06:24;18.63;;;9.10;;
32826;SDS011;51059;42.058;27.986;2023-02-10T05:08:49;21.33;;;10.00;;
32826;SDS011;51059;42.058;27.986;2023-02-10T05:11:16;17.60;;;9.27;;
32826;SDS011;51059;42.058;27.986;2023-02-10T05:13:42;22.17;;;9.40;;
32826;SDS011;51059;42.058;27.986;2023-02-10T05:16:08;18.30;;;9.60;;
32826;SDS011;51059;42.058;27.986;2023-02-10T05:18:34;20.37;;;10.13;;
32826;SDS011;51059;42.058;27.986;2023-02-10T05:21:00;22.60;;;9.83;;
32826;SDS011;51059;42.058;27.986;2023-02-10T05:23:27;17.10;;;9.37;;
32826;SDS011;51059;42.058;27.986;2023-02-10T05:25:53;24.90;;;10.83;;
32826;SDS011;51059;42.058;27.986;2023-02-10T05:28:19;20.43;;;10.63;;
32826;SDS011;51059;42.058;27.986;2023-02-10T05:30:45;22.40;;;11.23;;
32826;SDS011;51059;42.058;27.986;2023-02-10T05:33:11;25.03;;;12.60;;
32826;SDS011;51059;42.058;27.986;2023-02-10T05:35:37;28.10;;;13.33;;
32826;SDS011;51059;42.058;27.986;2023-02-10T05:38:02;24.00;;;11.90;;
32826;SDS011;51059;42.058;27.986;2023-02-10T05:40:28;23.27;;;11.53;;
32826;SDS011;51059;42.058;27.986;2023-02-10T05:42:54;23.10;;;11.13;;
32826;SDS011;51059;42.058;27.986;2023-02-10T05:45:20;23.47;;;10.90;;
32826;SDS011;51059;42.058;27.986;2023-02-10T05:47:46;28.80;;;11.40;;
32826;SDS011;51059;42.058;27.986;2023-02-10T05:50:11;24.30;;;10.10;;
32826;SDS011;51059;42.058;27.986;2023-02-10T05:52:37;23.13;;;10.23;;
32826;SDS011;51059;42.058;27.986;2023-02-10T05:55:03;19.40;;;9.20;;
32826;SDS011;51059;42.058;27.986;2023-02-10T05:57:29;21.17;;;9.37;;
32826;SDS011;51059;42.058;27.986;2023-02-10T05:59:55;21.37;;;9.40;;
32826;SDS011;51059;42.058;27.986;2023-02-10T06:02:20;20.00;;;9.27;;
32826;SDS011;51059;42.058;27.986;2023-02-10T06:04:46;25.17;;;9.50;;
32826;SDS011;51059;42.058;27.986;2023-02-10T06:07:12;20.53;;;8.97;;
32826;SDS011;51059;42.058;27.986;2023-02-10T06:09:37;23.00;;;9.47;;
32826;SDS011;51059;42.058;27.986;2023-02-10T06:12:04;17.23;;;8.03;;
32826;SDS011;51059;42.058;27.986;2023-02-10T06:14:31;19.37;;;8.77;;
32826;SDS011;51059;42.058;27.986;2023-02-10T06:16:56;18.97;;;9.00;;
32826;SDS011;51059;42.058;27.986;2023-02-10T06:19:22;18.30;;;8.30;;
32826;SDS011;51059;42.058;27.986;2023-02-10T06:21:48;16.00;;;8.87;;
32826;SDS011;51059;42.058;27.986;2023-02-10T06:24:14;17.03;;;8.50;;
32826;SDS011;51059;42.058;27.986;2023-02-10T06:26:39;17.17;;;8.70;;
32826;SDS011;51059;42.058;27.986;2023-02-10T06:29:05;17.90;;;9.23;;
32826;SDS011;51059;42.058;27.986;2023-02-10T06:31:31;18.67;;;9.37;;
32826;SDS011;51059;42.058;27.986;2023-02-10T06:33:57;21.00;;;9.30;;
32826;SDS011;51059;42.058;27.986;2023-02-10T06:36:23;21.90;;;9.03;;
32826;SDS011;51059;42.058;27.986;2023-02-10T06:38:48;27.83;;;9.27;;
32826;SDS011;51059;42.058;27.986;2023-02-10T06:41:14;21.03;;;9.57;;
32826;SDS011;51059;42.058;27.986;2023-02-10T06:43:39;18.93;;;11.10;;
32826;SDS011;51059;42.058;27.986;2023-02-10T06:46:05;21.83;;;10.50;;
32826;SDS011;51059;42.058;27.986;2023-02-10T06:48:32;24.57;;;10.50;;
32826;SDS011;51059;42.058;27.986;2023-02-10T06:50:57;20.40;;;10.20;;
32826;SDS011;51059;42.058;27.986;2023-02-10T06:53:23;21.33;;;10.50;;
32826;SDS011;51059;42.058;27.986;2023-02-10T06:55:49;23.40;;;9.87;;
32826;SDS011;51059;42.058;27.986;2023-02-10T06:58:14;22.20;;;9.73;;
32826;SDS011;51059;42.058;27.986;2023-02-10T07:00:40;22.57;;;10.93;;
32826;SDS011;51059;42.058;27.986;2023-02-10T07:03:06;29.53;;;11.30;;
32826;SDS011;51059;42.058;27.986;2023-02-10T07:05:31;24.53;;;10.47;;
32826;SDS011;51059;42.058;27.986;2023-02-10T07:08:00;20.07;;;10.30;;
32826;SDS011;51059;42.058;27.986;2023-02-10T07:10:27;23.10;;;11.60;;
32826;SDS011;51059;42.058;27.986;2023-02-10T07:12:53;26.47;;;10.57;;
32826;SDS011;51059;42.058;27.986;2023-02-10T07:15:18;25.23;;;12.20;;
32826;SDS011;51059;42.058;27.986;2023-02-10T07:17:47;24.70;;;11.20;;
32826;SDS011;51059;42.058;27.986;2023-02-10T07:20:13;20.87;;;10.83;;
32826;SDS011;51059;42.058;27.986;2023-02-10T07:22:39;25.47;;;11.47;;
32826;SDS011;51059;42.058;27.986;2023-02-10T07:25:04;25.57;;;11.10;;
32826;SDS011;51059;42.058;27.986;2023-02-10T07:27:30;22.30;;;10.03;;
32826;SDS011;51059;42.058;27.986;2023-02-10T07:29:56;21.53;;;10.43;;
32826;SDS011;51059;42.058;27.986;2023-02-10T07:32:21;20.07;;;10.57;;
32826;SDS011;51059;42.058;27.986;2023-02-10T07:34:47;23.03;;;10.47;;
32826;SDS011;51059;42.058;27.986;2023-02-10T07:37:16;25.17;;;10.47;;
32826;SDS011;51059;42.058;27.986;2023-02-10T07:39:41;19.37;;;9.57;;
32826;SDS011;51059;42.058;27.986;2023-02-10T07:42:07;19.90;;;10.03;;
32826;SDS011;51059;42.058;27.986;2023-02-10T07:44:32;24.20;;;10.43;;
32826;SDS011;51059;42.058;27.986;2023-02-10T07:46:58;17.70;;;9.70;;
32826;SDS011;51059;42.058;27.986;2023-02-10T07:49:24;22.17;;;10.03;;
32826;SDS011;51059;42.058;27.986;2023-02-10T07:51:51;18.37;;;9.93;;
32826;SDS011;51059;42.058;27.986;2023-02-10T07:54:17;14.83;;;8.87;;
32826;SDS011;51059;42.058;27.986;2023-02-10T07:56:43;21.80;;;10.13;;
32826;SDS011;51059;42.058;27.986;2023-02-10T07:59:08;20.30;;;9.73;;
32826;SDS011;51059;42.058;27.986;2023-02-10T08:01:34;22.67;;;9.63;;
32826;SDS011;51059;42.058;27.986;2023-02-10T08:04:05;15.17;;;8.80;;
32826;SDS011;51059;42.058;27.986;2023-02-10T08:06:31;19.80;;;9.17;;
32826;SDS011;51059;42.058;27.986;2023-02-10T08:08:57;19.80;;;8.73;;
32826;SDS011;51059;42.058;27.986;2023-02-10T08:11:22;17.93;;;9.50;;
32826;SDS011;51059;42.058;27.986;2023-02-10T08:13:48;18.00;;;9.57;;
32826;SDS011;51059;42.058;27.986;2023-02-10T08:16:14;21.83;;;10.07;;
32826;SDS011;51059;42.058;27.986;2023-02-10T08:18:40;18.47;;;9.07;;
32826;SDS011;51059;42.058;27.986;2023-02-10T08:21:06;18.77;;;8.83;;
32826;SDS011;51059;42.058;27.986;2023-02-10T08:23:33;16.83;;;9.03;;
32826;SDS011;51059;42.058;27.986;2023-02-10T08:26:09;19.87;;;9.73;;
32826;SDS011;51059;42.058;27.986;2023-02-10T08:28:36;22.30;;;9.17;;
32826;SDS011;51059;42.058;27.986;2023-02-10T08:31:03;18.27;;;9.17;;
32826;SDS011;51059;42.058;27.986;2023-02-10T08:33:30;19.10;;;9.37;;
32826;SDS011;51059;42.058;27.986;2023-02-10T08:35:56;22.53;;;9.57;;
32826;SDS011;51059;42.058;27.986;2023-02-10T08:38:22;18.07;;;9.33;;
32826;SDS011;51059;42.058;27.986;2023-02-10T08:40:57;23.27;;;9.50;;
32826;SDS011;51059;42.058;27.986;2023-02-10T08:43:23;17.73;;;8.13;;
32826;SDS011;51059;42.058;27.986;2023-02-10T08:45:49;17.33;;;9.17;;
32826;SDS011;51059;42.058;27.986;2023-02-10T08:48:15;21.37;;;9.60;;
32826;SDS011;51059;42.058;27.986;2023-02-10T08:50:41;17.60;;;8.40;;
32826;SDS011;51059;42.058;27.986;2023-02-10T08:53:06;16.37;;;8.60;;
32826;SDS011;51059;42.058;27.986;2023-02-10T08:55:32;21.73;;;8.73;;
32826;SDS011;51059;42.058;27.986;2023-02-10T08:57:57;27.27;;;9.30;;
32826;SDS011;51059;42.058;27.986;2023-02-10T09:00:23;23.77;;;8.93;;
32826;SDS011;51059;42.058;27.986;2023-02-10T09:02:49;24.80;;;9.20;;
32826;SDS011;51059;42.058;27.986;2023-02-10T09:05:15;16.50;;;8.93;;
32826;SDS011;51059;42.058;27.986;2023-02-10T09:07:41;16.73;;;8.70;;
32826;SDS011;51059;42.058;27.986;2023-02-10T09:10:09;14.87;;;8.33;;
32826;SDS011;51059;42.058;27.986;2023-02-10T09:12:35;15.73;;;8.77;;
32826;SDS011;51059;42.058;27.986;2023-02-10T09:15:02;19.23;;;8.33;;
32826;SDS011;51059;42.058;27.986;2023-02-10T09:17:27;18.80;;;8.53;;
32826;SDS011;51059;42.058;27.986;2023-02-10T09:19:53;18.03;;;8.70;;
32826;SDS011;51059;42.058;27.986;2023-02-10T09:22:19;16.47;;;7.87;;
32826;SDS011;51059;42.058;27.986;2023-02-10T09:24:44;17.03;;;8.10;;
32826;SDS011;51059;42.058;27.986;2023-02-10T09:27:12;22.10;;;8.30;;
32826;SDS011;51059;42.058;27.986;2023-02-10T09:29:38;16.20;;;7.77;;
32826;SDS011;51059;42.058;27.986;2023-02-10T09:32:03;17.53;;;8.20;;
32826;SDS011;51059;42.058;27.986;2023-02-10T09:34:29;12.23;;;7.60;;
32826;SDS011;51059;42.058;27.986;2023-02-10T09:36:56;19.27;;;8.40;;
32826;SDS011;51059;42.058;27.986;2023-02-10T09:39:26;13.70;;;7.73;;
32826;SDS011;51059;42.058;27.986;2023-02-10T09:44:28;14.20;;;7.93;;
32826;SDS011;51059;42.058;27.986;2023-02-10T09:50:05;15.03;;;7.90;;
32826;SDS011;51059;42.058;27.986;2023-02-10T09:55:39;15.27;;;7.77;;
32826;SDS011;51059;42.058;27.986;2023-02-10T10:03:43;14.13;;;7.73;;
32826;SDS011;51059;42.058;27.986;2023-02-10T10:06:35;14.47;;;7.73;;
32826;SDS011;51059;42.058;27.986;2023-02-10T10:11:42;14.33;;;7.57;;
32826;SDS011;51059;42.058;27.986;2023-02-10T10:19:36;14.47;;;7.50;;
32826;SDS011;51059;42.058;27.986;2023-02-10T10:33:19;12.63;;;7.23;;
32826;SDS011;51059;42.058;27.986;2023-02-10T10:35:47;12.27;;;7.23;;
32826;SDS011;51059;42.058;27.986;2023-02-10T10:38:19;18.33;;;6.93;;
32826;SDS011;51059;42.058;27.986;2023-02-10T10:40:47;11.43;;;7.27;;
32826;SDS011;51059;42.058;27.986;2023-02-10T10:43:20;11.20;;;7.17;;
32826;SDS011;51059;42.058;27.986;2023-02-10T10:45:50;12.73;;;6.40;;
32826;SDS011;51059;42.058;27.986;2023-02-10T10:48:24;13.63;;;6.83;;
32826;SDS011;51059;42.058;27.986;2023-02-10T10:50:58;12.37;;;7.00;;
32826;SDS011;51059;42.058;27.986;2023-02-10T10:53:37;11.60;;;7.13;;
32826;SDS011;51059;42.058;27.986;2023-02-10T10:58:48;13.27;;;6.73;;
32826;SDS011;51059;42.058;27.986;2023-02-10T11:01:14;12.10;;;6.83;;
32826;SDS011;51059;42.058;27.986;2023-02-10T11:03:41;14.00;;;6.57;;
32826;SDS011;51059;42.058;27.986;2023-02-10T11:06:11;10.47;;;6.63;;
32826;SDS011;51059;42.058;27.986;2023-02-10T11:09:00;9.80;;;6.60;;
32826;SDS011;51059;42.058;27.986;2023-02-10T11:11:31;10.43;;;6.57;;
32826;SDS011;51059;42.058;27.986;2023-02-10T11:13:57;10.83;;;6.80;;
32826;SDS011;51059;42.058;27.986;2023-02-10T11:16:23;13.37;;;7.00;;
32826;SDS011;51059;42.058;27.986;2023-02-10T11:21:20;12.03;;;6.97;;
32826;SDS011;51059;42.058;27.986;2023-02-10T11:23:50;12.37;;;7.27;;
32826;SDS011;51059;42.058;27.986;2023-02-10T11:26:21;11.00;;;6.43;;
32826;SDS011;51059;42.058;27.986;2023-02-10T11:28:49;11.50;;;6.73;;
32826;SDS011;51059;42.058;27.986;2023-02-10T11:36:45;9.53;;;6.43;;
32826;SDS011;51059;42.058;27.986;2023-02-10T11:39:25;12.73;;;5.97;;
32826;SDS011;51059;42.058;27.986;2023-02-10T11:42:10;11.43;;;6.53;;
32826;SDS011;51059;42.058;27.986;2023-02-10T11:44:41;9.63;;;6.90;;
32826;SDS011;51059;42.058;27.986;2023-02-10T11:47:15;13.60;;;6.93;;
32826;SDS011;51059;42.058;27.986;2023-02-10T11:49:44;12.83;;;6.50;;
32826;SDS011;51059;42.058;27.986;2023-02-10T11:52:15;13.07;;;7.27;;
32826;SDS011;51059;42.058;27.986;2023-02-10T11:54:42;10.60;;;6.97;;
32826;SDS011;51059;42.058;27.986;2023-02-10T12:05:38;11.83;;;7.40;;
32826;SDS011;51059;42.058;27.986;2023-02-10T12:17:33;11.20;;;7.10;;
32826;SDS011;51059;42.058;27.986;2023-02-10T12:19:45;11.73;;;6.87;;
32826;SDS011;51059;42.058;27.986;2023-02-10T12:25:04;12.37;;;7.53;;
32826;SDS011;51059;42.058;27.986;2023-02-10T12:30:16;12.13;;;7.50;;
32826;SDS011;51059;42.058;27.986;2023-02-10T12:41:33;13.00;;;7.23;;
32826;SDS011;51059;42.058;27.986;2023-02-10T12:46:46;11.93;;;6.97;;
32826;SDS011;51059;42.058;27.986;2023-02-10T12:49:52;10.53;;;6.73;;
32826;SDS011;51059;42.058;27.986;2023-02-10T12:52:41;10.20;;;6.60;;
32826;SDS011;51059;42.058;27.986;2023-02-10T12:57:43;11.23;;;7.47;;
32826;SDS011;51059;42.058;27.986;2023-02-10T13:00:28;14.70;;;6.80;;
32826;SDS011;51059;42.058;27.986;2023-02-10T13:02:59;12.47;;;7.27;;
32826;SDS011;51059;42.058;27.986;2023-02-10T13:05:32;17.93;;;7.73;;
32826;SDS011;51059;42.058;27.986;2023-02-10T13:08:02;11.50;;;6.90;;
32826;SDS011;51059;42.058;27.986;2023-02-10T13:10:40;12.57;;;6.80;;
32826;SDS011;51059;42.058;27.986;2023-02-10T13:13:13;12.20;;;6.90;;
32826;SDS011;51059;42.058;27.986;2023-02-10T13:15:41;11.80;;;7.20;;
32826;SDS011;51059;42.058;27.986;2023-02-10T13:18:22;13.57;;;7.40;;
32826;SDS011;51059;42.058;27.986;2023-02-10T13:21:01;13.27;;;7.40;;
32826;SDS011;51059;42.058;27.986;2023-02-10T13:23:37;16.77;;;6.10;;
32826;SDS011;51059;42.058;27.986;2023-02-10T13:32:01;9.77;;;5.90;;
32826;SDS011;51059;42.058;27.986;2023-02-10T13:34:44;10.50;;;5.20;;
32826;SDS011;51059;42.058;27.986;2023-02-10T13:40:18;12.90;;;6.40;;
32826;SDS011;51059;42.058;27.986;2023-02-10T13:42:47;9.43;;;6.17;;
32826;SDS011;51059;42.058;27.986;2023-02-10T13:45:35;9.63;;;5.77;;
32826;SDS011;51059;42.058;27.986;2023-02-10T13:48:06;10.67;;;5.63;;
32826;SDS011;51059;42.058;27.986;2023-02-10T13:58:47;10.97;;;5.00;;
32826;SDS011;51059;42.058;27.986;2023-02-10T14:04:03;9.57;;;4.40;;
32826;SDS011;51059;42.058;27.986;2023-02-10T14:06:34;11.37;;;4.63;;
32826;SDS011;51059;42.058;27.986;2023-02-10T14:09:03;10.30;;;5.50;;
32826;SDS011;51059;42.058;27.986;2023-02-10T14:11:52;8.40;;;5.27;;
32826;SDS011;51059;42.058;27.986;2023-02-10T14:17:00;10.33;;;4.90;;
32826;SDS011;51059;42.058;27.986;2023-02-10T14:19:30;9.77;;;4.70;;
32826;SDS011;51059;42.058;27.986;2023-02-10T14:21:58;11.73;;;5.00;;
32826;SDS011;51059;42.058;27.986;2023-02-10T14:24:43;8.63;;;4.93;;
32826;SDS011;51059;42.058;27.986;2023-02-10T14:27:09;7.30;;;4.40;;
32826;SDS011;51059;42.058;27.986;2023-02-10T14:29:37;7.87;;;5.13;;
32826;SDS011;51059;42.058;27.986;2023-02-10T14:32:06;7.97;;;5.23;;
32826;SDS011;51059;42.058;27.986;2023-02-10T14:34:34;11.97;;;5.00;;
32826;SDS011;51059;42.058;27.986;2023-02-10T14:37:14;9.57;;;5.10;;
32826;SDS011;51059;42.058;27.986;2023-02-10T14:39:39;7.70;;;4.57;;
32826;SDS011;51059;42.058;27.986;2023-02-10T14:42:15;11.03;;;5.23;;
32826;SDS011;51059;42.058;27.986;2023-02-10T14:44:43;10.17;;;4.90;;
32826;SDS011;51059;42.058;27.986;2023-02-10T14:47:15;7.47;;;5.00;;
32826;SDS011;51059;42.058;27.986;2023-02-10T14:49:41;10.50;;;5.50;;
32826;SDS011;51059;42.058;27.986;2023-02-10T14:52:17;8.50;;;4.73;;
32826;SDS011;51059;42.058;27.986;2023-02-10T14:55:23;12.93;;;5.47;;
32826;SDS011;51059;42.058;27.986;2023-02-10T14:58:15;13.13;;;5.53;;
32826;SDS011;51059;42.058;27.986;2023-02-10T15:00:57;15.60;;;5.70;;
32826;SDS011;51059;42.058;27.986;2023-02-10T15:03:42;11.83;;;6.10;;
32826;SDS011;51059;42.058;27.986;2023-02-10T15:06:08;9.57;;;5.60;;
32826;SDS011;51059;42.058;27.986;2023-02-10T15:08:36;12.47;;;6.00;;
32826;SDS011;51059;42.058;27.986;2023-02-10T15:11:05;12.27;;;5.77;;
32826;SDS011;51059;42.058;27.986;2023-02-10T15:13:43;9.80;;;5.57;;
32826;SDS011;51059;42.058;27.986;2023-02-10T15:16:11;11.67;;;5.40;;
32826;SDS011;51059;42.058;27.986;2023-02-10T15:18:39;14.00;;;5.80;;
32826;SDS011;51059;42.058;27.986;2023-02-10T15:21:21;11.17;;;5.27;;
32826;SDS011;51059;42.058;27.986;2023-02-10T15:23:51;12.47;;;5.87;;
32826;SDS011;51059;42.058;27.986;2023-02-10T15:26:18;12.80;;;5.57;;
32826;SDS011;51059;42.058;27.986;2023-02-10T15:28:44;13.03;;;5.53;;
32826;SDS011;51059;42.058;27.986;2023-02-10T15:38:34;11.20;;;5.13;;
32826;SDS011;51059;42.058;27.986;2023-02-10T15:43:52;10.90;;;5.13;;
32826;SDS011;51059;42.058;27.986;2023-02-10T15:46:18;9.73;;;4.83;;
32826;SDS011;51059;42.058;27.986;2023-02-10T15:48:44;11.93;;;5.33;;
32826;SDS011;51059;42.058;27.986;2023-02-10T15:51:27;11.27;;;4.80;;
32826;SDS011;51059;42.058;27.986;2023-02-10T15:53:54;10.23;;;5.53;;
32826;SDS011;51059;42.058;27.986;2023-02-10T15:56:21;12.77;;;5.23;;
32826;SDS011;51059;42.058;27.986;2023-02-10T15:58:48;8.13;;;4.90;;
32826;SDS011;51059;42.058;27.986;2023-02-10T16:01:14;11.73;;;4.57;;
32826;SDS011;51059;42.058;27.986;2023-02-10T16:03:39;9.73;;;4.97;;
32826;SDS011;51059;42.058;27.986;2023-02-10T16:06:05;10.57;;;4.67;;
32826;SDS011;51059;42.058;27.986;2023-02-10T16:08:30;13.10;;;4.80;;
32826;SDS011;51059;42.058;27.986;2023-02-10T16:10:56;7.47;;;4.60;;
32826;SDS011;51059;42.058;27.986;2023-02-10T16:13:22;9.33;;;4.53;;
32826;SDS011;51059;42.058;27.986;2023-02-10T16:15:48;10.20;;;5.20;;
32826;SDS011;51059;42.058;27.986;2023-02-10T16:18:18;13.33;;;4.50;;
32826;SDS011;51059;42.058;27.986;2023-02-10T16:20:45;10.10;;;4.57;;
32826;SDS011;51059;42.058;27.986;2023-02-10T16:23:15;9.23;;;4.80;;
32826;SDS011;51059;42.058;27.986;2023-02-10T16:25:42;8.50;;;4.73;;
32826;SDS011;51059;42.058;27.986;2023-02-10T16:28:10;11.03;;;4.97;;
32826;SDS011;51059;42.058;27.986;2023-02-10T16:30:38;10.00;;;4.20;;
32826;SDS011;51059;42.058;27.986;2023-02-10T16:33:04;9.63;;;4.27;;
32826;SDS011;51059;42.058;27.986;2023-02-10T16:35:29;10.20;;;4.53;;
32826;SDS011;51059;42.058;27.986;2023-02-10T16:37:56;6.93;;;4.00;;
32826;SDS011;51059;42.058;27.986;2023-02-10T16:40:26;9.20;;;4.80;;
32826;SDS011;51059;42.058;27.986;2023-02-10T16:42:52;11.87;;;4.90;;
32826;SDS011;51059;42.058;27.986;2023-02-10T16:45:27;8.47;;;4.37;;
32826;SDS011;51059;42.058;27.986;2023-02-10T16:47:55;9.73;;;4.50;;